Time;durP1;ratioP1;P1;durP2;ratioP2;P2;SDS_P1;SDS_P2;PMS_P1;PMS_P2;Temp;Humidity;BMP_temperature;BMP_pressure;BME280_temperature;BME280_humidity;BME280_pressure;Samples;Min_cycle;Max_cycle;Signal;HPM_P1;HPM_P2
2022/03/08 00:00:26;;;;;;;4.97;2.60;;;;;;;-3.08;100.00;101946.66;5012470;28;20374;-77
2022/03/08 00:02:54;;;;;;;5.40;3.00;;;;;;;-2.97;100.00;101949.81;5011732;28;20076;-77
2022/03/08 00:05:22;;;;;;;3.63;2.67;;;;;;;-3.04;100.00;101943.41;5011819;28;20102;-78
2022/03/08 00:07:49;;;;;;;3.10;2.20;;;;;;;-3.14;100.00;101944.59;5027520;28;20814;-78
2022/03/08 00:10:16;;;;;;;5.03;2.77;;;;;;;-3.17;100.00;101947.03;5029235;28;20064;-78
2022/03/08 00:12:46;;;;;;;4.43;2.47;;;;;;;-3.11;100.00;101951.66;5045679;28;20057;-78
2022/03/08 00:15:24;;;;;;;4.23;2.60;;;;;;;-3.16;100.00;101955.66;5001149;28;21285;-78
2022/03/08 00:17:52;;;;;;;4.83;2.93;;;;;;;-3.20;100.00;101959.75;5026967;28;20037;-78
2022/03/08 00:20:19;;;;;;;5.07;2.63;;;;;;;-3.23;100.00;101962.19;5033458;28;20037;-78
2022/03/08 00:22:46;;;;;;;5.63;3.07;;;;;;;-3.25;100.00;101953.47;5034237;28;20079;-78
2022/03/08 00:25:15;;;;;;;4.73;2.93;;;;;;;-3.29;100.00;101961.84;5015141;28;20055;-78
2022/03/08 00:27:47;;;;;;;4.97;2.80;;;;;;;-3.29;100.00;101945.44;5002362;28;20047;-78
2022/03/08 00:30:16;;;;;;;2.80;2.30;;;;;;;-3.30;100.00;101948.81;5051392;28;20048;-78
2022/03/08 00:32:47;;;;;;;4.40;2.83;;;;;;;-3.34;100.00;101952.06;5020098;28;20045;-78
2022/03/08 00:35:14;;;;;;;3.93;2.53;;;;;;;-3.40;100.00;101945.72;5008365;28;20054;-78
2022/03/08 00:37:41;;;;;;;3.53;2.50;;;;;;;-3.36;100.00;101946.81;5032680;28;20045;-78
2022/03/08 00:40:09;;;;;;;3.77;2.60;;;;;;;-3.37;100.00;101947.59;5035057;28;20561;-78
2022/03/08 00:42:38;;;;;;;3.30;2.60;;;;;;;-3.42;100.00;101952.53;5003366;28;20041;-78
2022/03/08 00:45:07;;;;;;;4.53;2.77;;;;;;;-3.46;100.00;101944.50;5035885;28;20039;-78
2022/03/08 00:47:40;;;;;;;2.83;2.40;;;;;;;-3.42;100.00;101943.88;5015369;28;20590;-78
2022/03/08 00:50:12;;;;;;;5.10;2.73;;;;;;;-3.45;100.00;101935.94;5020827;28;20044;-78
2022/03/08 00:52:39;;;;;;;4.00;2.70;;;;;;;-3.51;100.00;101938.19;5029565;28;20046;-78
2022/03/08 00:55:07;;;;;;;3.43;2.70;;;;;;;-3.46;100.00;101935.03;5033243;28;20456;-78
2022/03/08 00:57:34;;;;;;;5.27;2.90;;;;;;;-3.42;100.00;101934.44;5031139;28;20071;-78
2022/03/08 01:00:05;;;;;;;4.13;2.40;;;;;;;-3.46;100.00;101937.63;5035243;28;20071;-78
2022/03/08 01:02:31;;;;;;;3.47;2.53;;;;;;;-3.42;100.00;101936.13;5032074;28;20057;-78
2022/03/08 01:04:58;;;;;;;3.03;2.60;;;;;;;-3.50;100.00;101939.97;5054142;28;20041;-78
2022/03/08 01:07:25;;;;;;;5.13;2.97;;;;;;;-3.53;100.00;101929.44;5034651;28;20045;-78
2022/03/08 01:09:51;;;;;;;5.63;2.90;;;;;;;-3.42;100.00;101941.28;5037823;28;20037;-78
2022/03/08 01:12:18;;;;;;;5.77;3.07;;;;;;;-3.50;100.00;101934.81;5024775;28;20049;-78
2022/03/08 01:14:45;;;;;;;6.30;3.03;;;;;;;-3.54;100.00;101938.00;5038629;28;20041;-78
2022/03/08 01:17:12;;;;;;;4.93;3.13;;;;;;;-3.59;100.00;101949.78;5018396;28;20120;-78
2022/03/08 01:19:38;;;;;;;5.80;3.77;;;;;;;-3.52;100.00;101939.00;5037521;28;20053;-78
2022/03/08 01:22:05;;;;;;;4.50;3.07;;;;;;;-3.55;100.00;101934.53;5018149;28;20042;-78
2022/03/08 01:24:31;;;;;;;5.60;3.60;;;;;;;-3.56;100.00;101937.03;5041982;28;20063;-78
2022/03/08 01:26:58;;;;;;;4.40;2.80;;;;;;;-3.63;100.00;101935.78;5028298;28;20569;-78
2022/03/08 01:29:25;;;;;;;5.60;3.10;;;;;;;-3.66;100.00;101938.19;5036224;28;20040;-78
2022/03/08 01:31:52;;;;;;;4.30;2.80;;;;;;;-3.71;100.00;101932.75;5034389;28;20066;-78
2022/03/08 01:34:18;;;;;;;4.53;2.97;;;;;;;-3.63;100.00;101935.78;5054604;28;20053;-78
2022/03/08 01:36:45;;;;;;;4.57;2.73;;;;;;;-3.70;100.00;101934.56;5021804;28;20109;-78
2022/03/08 01:39:12;;;;;;;5.17;3.23;;;;;;;-3.79;100.00;101930.53;5028188;28;20042;-78
2022/03/08 01:41:38;;;;;;;3.60;2.53;;;;;;;-3.82;100.00;101928.69;5030219;28;20782;-78
2022/03/08 01:44:07;;;;;;;4.83;3.00;;;;;;;-3.78;100.00;101928.06;5019063;28;20106;-78
2022/03/08 01:46:36;;;;;;;5.03;3.37;;;;;;;-3.84;100.00;101921.66;5013564;28;20140;-78
2022/03/08 01:49:04;;;;;;;5.23;3.17;;;;;;;-3.95;100.00;101926.22;5016766;28;20106;-78
2022/03/08 01:51:32;;;;;;;7.50;3.20;;;;;;;-4.00;100.00;101927.63;5000090;28;20041;-78
2022/03/08 01:53:58;;;;;;;4.60;2.80;;;;;;;-4.02;100.00;101918.91;5033965;28;20049;-78
2022/03/08 01:56:25;;;;;;;4.37;2.90;;;;;;;-4.02;100.00;101922.38;5041737;28;20110;-78
2022/03/08 01:58:52;;;;;;;8.63;2.87;;;;;;;-4.05;100.00;101922.19;5018103;28;20623;-78
2022/03/08 02:01:18;;;;;;;6.87;2.80;;;;;;;-4.06;100.00;101920.41;5018505;28;20045;-78
2022/03/08 02:03:45;;;;;;;3.40;2.33;;;;;;;-4.08;100.00;101922.00;5004634;28;20049;-78
2022/03/08 02:06:12;;;;;;;4.37;2.70;;;;;;;-4.11;100.00;101931.28;5031083;28;20045;-78
2022/03/08 02:08:39;;;;;;;4.37;3.10;;;;;;;-4.16;100.00;101927.53;5016901;28;20076;-77
2022/03/08 02:11:05;;;;;;;3.60;2.60;;;;;;;-4.19;100.00;101924.78;5019564;28;20099;-78
2022/03/08 02:13:32;;;;;;;4.63;2.47;;;;;;;-4.19;100.00;101922.19;5015307;28;20060;-78
2022/03/08 02:15:59;;;;;;;3.57;2.67;;;;;;;-4.21;100.00;101928.94;4998330;28;20049;-78
2022/03/08 02:18:26;;;;;;;4.67;2.93;;;;;;;-4.21;100.00;101934.97;5031506;28;20087;-78
2022/03/08 02:20:52;;;;;;;3.77;3.00;;;;;;;-4.24;100.00;101924.47;5039572;28;20037;-78
2022/03/08 02:23:19;;;;;;;5.73;2.90;;;;;;;-4.21;100.00;101928.94;5039659;28;20500;-77
2022/03/08 09:34:07;;;;;;;1.40;1.00;;;;;;;5.00;58.22;101952.31;5086134;23;20068;31
2022/03/08 09:36:34;;;;;;;2.57;1.23;;;;;;;5.24;56.40;101952.88;4986086;28;20046;-79
2022/03/08 09:39:01;;;;;;;1.40;1.10;;;;;;;5.54;53.38;101949.13;4973746;28;20031;-80
2022/03/08 09:41:28;;;;;;;2.30;1.20;;;;;;;5.76;55.69;101948.72;4990699;28;20117;-77
2022/03/08 09:43:54;;;;;;;3.10;1.27;;;;;;;5.85;56.44;101954.13;5009729;28;20546;-77
2022/03/08 09:46:21;;;;;;;1.33;1.00;;;;;;;6.07;58.73;101954.59;5003301;28;20504;-77
2022/03/08 09:48:49;;;;;;;2.27;1.00;;;;;;;6.59;49.77;101958.13;4989961;28;20096;-76
2022/03/08 09:51:16;;;;;;;2.60;1.20;;;;;;;6.72;50.92;101953.06;4992611;28;20052;-76
2022/03/08 09:53:43;;;;;;;1.60;1.00;;;;;;;6.78;52.44;101941.78;4977712;28;20041;-77
2022/03/08 09:56:10;;;;;;;1.67;0.93;;;;;;;7.08;50.26;101941.38;5002519;28;20080;-79
2022/03/08 09:58:37;;;;;;;2.27;1.10;;;;;;;7.28;50.47;101939.91;4997416;28;20048;-80
2022/03/08 10:01:04;;;;;;;2.43;1.10;;;;;;;7.52;47.70;101934.09;5003268;28;20030;-77
2022/03/08 10:03:35;;;;;;;2.23;1.10;;;;;;;7.64;46.64;101928.06;4976872;28;20084;-76
2022/03/08 10:06:03;;;;;;;1.63;1.33;;;;;;;7.71;45.49;101923.78;4992316;28;20045;-78
2022/03/08 10:08:30;;;;;;;1.67;1.30;;;;;;;7.77;46.71;101922.09;4995450;28;20049;-77
2022/03/08 10:11:01;;;;;;;2.13;1.33;;;;;;;8.02;46.03;101911.84;5009825;28;20085;-76
2022/03/08 10:13:50;;;;;;;1.30;1.00;;;;;;;8.18;43.75;101908.50;5007477;28;20045;-75
2022/03/08 10:16:26;;;;;;;1.67;1.00;;;;;;;8.39;42.55;101908.69;4995168;28;20566;-75
2022/03/08 10:19:02;;;;;;;3.20;1.17;;;;;;;8.55;43.88;101908.81;4999030;28;20049;-76
2022/03/08 10:21:34;;;;;;;1.52;1.00;;;;;;;8.78;43.58;101904.63;4992283;28;20041;-77
2022/03/08 10:24:22;;;;;;;5.37;1.33;;;;;;;9.02;43.38;101904.78;5001108;28;20050;-77
2022/03/08 10:26:56;;;;;;;1.20;0.80;;;;;;;9.26;43.64;101905.78;4994386;28;20500;-78
2022/03/08 10:29:36;;;;;;;2.10;1.20;;;;;;;9.22;42.21;101902.22;5012808;28;20049;-77
2022/03/08 10:32:10;;;;;;;3.88;2.72;;;;;;;9.40;39.68;101901.44;4987418;28;20121;-78
2022/03/08 10:34:37;;;;;;;;;;;;;;;9.45;39.26;101902.34;5012135;28;20049;-77
2022/03/08 10:37:24;;;;;;;1.98;1.65;;;;;;;9.55;42.31;101892.69;5006956;28;19921;-78
2022/03/08 10:39:56;;;;;;;1.52;1.17;;;;;;;9.65;39.55;101898.88;4993573;28;20393;-78
2022/03/08 10:42:25;;;;;;;3.63;2.22;;;;;;;9.74;39.67;101891.00;5026141;28;20507;-77
2022/03/08 10:45:00;;;;;;;4.47;1.85;;;;;;;9.46;36.79;101877.72;4995338;28;20042;-76
2022/03/08 10:47:27;;;;;;;1.52;0.82;;;;;;;9.33;37.43;101891.72;5001306;28;20319;-78
2022/03/08 10:49:56;;;;;;;0.98;0.80;;;;;;;9.47;37.71;101883.88;5032451;28;20038;-77
2022/03/08 10:52:50;;;;;;;15.75;10.38;;;;;;;9.49;39.52;101876.84;4996410;28;20038;-77
2022/03/08 10:55:27;;;;;;;1.70;1.30;;;;;;;9.71;37.82;101889.22;5013964;28;20041;-77
2022/03/08 10:57:56;;;;;;;1.75;0.85;;;;;;;9.74;35.80;101889.22;4998839;28;20291;-79
2022/03/08 11:00:28;;;;;;;3.20;1.15;;;;;;;9.66;37.82;101885.69;5012661;28;20049;-78
2022/03/08 11:03:01;;;;;;;2.20;1.33;;;;;;;9.82;37.55;101887.50;4982318;28;20045;-76
2022/03/08 11:05:34;;;;;;;1.05;0.90;;;;;;;9.97;36.05;101894.56;5015549;28;20037;-76
2022/03/08 11:08:00;;;;;;;0.93;0.82;;;;;;;10.08;36.30;101884.00;4994933;28;20059;-75
2022/03/08 11:10:28;;;;;;;1.00;0.90;;;;;;;10.23;36.31;101883.19;5010522;28;20037;-76
2022/03/08 11:12:56;;;;;;;1.30;1.20;;;;;;;10.09;35.04;101878.75;4989644;28;20030;-76
2022/03/08 11:15:23;;;;;;;1.50;0.93;;;;;;;10.26;35.54;101868.25;4997636;28;20499;-75
2022/03/08 11:17:52;;;;;;;2.33;1.20;;;;;;;10.38;37.27;101857.66;5014478;28;20091;-75
2022/03/08 11:20:20;;;;;;;0.70;0.70;;;;;;;10.52;35.94;101860.28;5003666;28;20030;-75
2022/03/08 11:22:51;;;;;;;2.40;0.98;;;;;;;10.51;35.78;101847.97;5010479;28;20037;-75
2022/03/08 11:25:18;;;;;;;1.17;0.80;;;;;;;10.48;35.36;101850.59;5007668;28;20050;-76
2022/03/08 11:28:06;;;;;;;2.92;0.82;;;;;;;10.48;35.20;101852.34;4992323;28;20061;-76
2022/03/08 11:30:45;;;;;;;2.65;0.80;;;;;;;10.46;33.80;101849.72;5006063;28;20043;-76
2022/03/08 11:33:39;;;;;;;2.08;1.30;;;;;;;10.61;34.91;101849.72;4993907;28;20459;-76
2022/03/08 11:36:26;;;;;;;1.92;0.90;;;;;;;10.65;34.58;101846.16;5018602;28;20033;-76
2022/03/08 11:39:14;;;;;;;1.10;0.80;;;;;;;10.30;33.89;101847.97;4993536;28;20095;-76
2022/03/08 11:41:43;;;;;;;1.58;0.90;;;;;;;10.39;35.55;101840.03;5021240;28;20041;-76
2022/03/08 11:44:33;;;;;;;1.17;0.90;;;;;;;10.45;36.15;101829.47;5000128;28;20041;-76
2022/03/08 11:47:12;;;;;;;3.05;1.20;;;;;;;10.61;36.23;101827.69;4978998;28;21332;-77
2022/03/08 11:49:54;;;;;;;1.08;0.80;;;;;;;10.78;36.09;101825.00;4992249;28;20053;-76
2022/03/08 11:52:30;;;;;;;1.70;1.00;;;;;;;10.78;34.40;101819.72;5006979;28;20072;-75
2022/03/08 11:55:10;;;;;;;1.65;0.80;;;;;;;10.78;34.41;101810.03;5004691;28;20049;-76
2022/03/08 11:57:49;;;;;;;2.92;0.90;;;;;;;10.75;34.27;101812.66;5012884;28;20048;-76
2022/03/08 12:00:29;;;;;;;1.90;0.90;;;;;;;10.72;36.25;101812.69;5013248;28;20083;-75
2022/03/08 12:02:58;;;;;;;1.67;0.80;;;;;;;10.98;35.63;101812.59;5010424;28;20053;-75
2022/03/08 12:06:06;;;;;;;2.08;0.82;;;;;;;10.43;33.38;101807.47;4995504;28;20042;-76
2022/03/08 12:08:33;;;;;;;1.40;0.80;;;;;;;10.29;33.55;101810.13;4980127;28;20058;-76
2022/03/08 12:11:03;;;;;;;2.25;1.05;;;;;;;10.51;35.32;101816.25;4984056;28;20688;-76
2022/03/08 12:13:40;;;;;;;1.08;0.80;;;;;;;10.51;34.42;101816.25;5008508;28;20045;-76
2022/03/08 12:16:08;;;;;;;1.88;0.73;;;;;;;10.70;35.51;101804.75;5012191;28;20041;-75
2022/03/08 12:18:40;;;;;;;1.27;0.90;;;;;;;10.55;33.41;101810.06;5016466;28;20053;-75
2022/03/08 12:21:16;;;;;;;1.15;0.70;;;;;;;10.61;37.06;101806.56;4991543;28;20057;-76
2022/03/08 12:23:58;;;;;;;2.75;1.10;;;;;;;10.65;34.35;101800.34;5021677;28;20041;-75
2022/03/08 12:26:39;;;;;;;2.40;0.88;;;;;;;10.81;33.76;101806.47;4997176;28;20084;-76
2022/03/08 12:29:27;;;;;;;0.80;0.70;;;;;;;10.92;34.34;101799.38;5027439;28;20041;-75
2022/03/08 12:31:56;;;;;;;0.82;0.70;;;;;;;10.79;33.78;101809.13;5007120;28;20103;-76
2022/03/08 12:34:32;;;;;;;1.83;0.85;;;;;;;10.79;34.21;101798.56;4995655;28;20045;-75
2022/03/08 12:37:23;;;;;;;1.75;0.88;;;;;;;10.70;34.78;101803.88;5009695;28;20500;-75
2022/03/08 12:40:09;;;;;;;0.77;0.77;;;;;;;10.92;35.83;101800.25;5010940;28;20064;-76
2022/03/08 12:42:41;;;;;;;0.93;0.70;;;;;;;10.96;35.70;101795.88;5009275;28;20041;-75
2022/03/08 12:45:34;;;;;;;1.20;0.85;;;;;;;10.89;34.02;101786.19;4997074;28;20057;-75
2022/03/08 12:48:06;;;;;;;1.20;0.63;;;;;;;11.10;35.45;101774.63;5008294;28;20404;-76
2022/03/08 12:50:42;;;;;;;1.13;0.60;;;;;;;11.24;36.27;101778.09;5004241;28;20095;-76
2022/03/08 12:53:16;;;;;;;1.23;0.80;;;;;;;11.19;33.45;101783.41;5009285;28;20044;-76
2022/03/08 12:55:48;;;;;;;0.80;0.70;;;;;;;10.76;33.82;101784.47;4986885;28;20083;-76
2022/03/08 12:58:18;;;;;;;0.95;0.65;;;;;;;10.90;34.19;101780.88;5009869;28;20492;-76
2022/03/08 13:01:03;;;;;;;0.98;0.80;;;;;;;10.74;34.03;101780.94;4990365;28;20068;-76
2022/03/08 13:03:34;;;;;;;1.35;0.75;;;;;;;10.58;34.51;101781.00;4990834;28;20558;-76
2022/03/08 13:06:09;;;;;;;0.95;0.70;;;;;;;10.09;34.43;101781.06;4989456;28;20134;-76
2022/03/08 13:08:37;;;;;;;1.02;0.63;;;;;;;10.23;36.01;101773.13;5004924;28;20052;-76
2022/03/08 13:11:06;;;;;;;1.02;0.80;;;;;;;10.47;36.14;101773.97;5010956;28;20037;-76
2022/03/08 13:13:50;;;;;;;1.08;0.60;;;;;;;10.53;35.67;101771.34;4996072;28;20091;-76
2022/03/08 13:16:19;;;;;;;0.45;0.45;;;;;;;10.49;34.99;101775.72;4995465;28;20038;-75
2022/03/08 13:18:46;;;;;;;0.60;0.60;;;;;;;10.48;35.26;101768.69;4991989;28;20408;-75
2022/03/08 13:21:14;;;;;;;1.10;0.60;;;;;;;10.48;36.31;101759.88;4993925;28;20068;-75
2022/03/08 13:23:44;;;;;;;1.13;0.73;;;;;;;10.51;36.81;101768.72;5011144;28;20037;-76
2022/03/08 13:26:49;;;;;;;2.40;0.70;;;;;;;10.31;35.83;101768.72;5008332;28;20136;-76
2022/03/08 13:29:03;;;;;;;1.08;0.85;;;;;;;10.27;35.26;101767.00;4995664;28;20041;-76
2022/03/08 13:31:31;;;;;;;1.80;0.80;;;;;;;10.37;37.27;101759.91;5006475;28;20068;-76
2022/03/08 13:33:59;;;;;;;0.98;0.70;;;;;;;10.45;37.52;101755.50;4983767;28;20125;-76
2022/03/08 13:36:26;;;;;;;1.05;0.80;;;;;;;10.38;37.02;101756.41;4992702;28;20038;-76
2022/03/08 13:38:56;;;;;;;1.23;0.70;;;;;;;10.41;37.44;101756.38;5011120;28;20565;-75
2022/03/08 13:41:27;;;;;;;1.45;0.90;;;;;;;10.51;36.13;101758.13;4993181;28;20041;-76
2022/03/08 13:44:00;;;;;;;1.15;0.80;;;;;;;10.51;35.10;101757.22;4999426;28;20125;-76
2022/03/08 13:46:35;;;;;;;0.90;0.77;;;;;;;10.23;35.75;101765.22;4986431;28;20124;-76
2022/03/08 13:49:08;;;;;;;1.33;1.00;;;;;;;10.20;35.07;101769.59;4978328;28;20065;-75
2022/03/08 13:51:37;;;;;;;1.05;0.70;;;;;;;10.09;36.10;101766.97;4992447;28;20049;-76
2022/03/08 13:54:06;;;;;;;1.80;1.00;;;;;;;10.04;36.11;101764.31;4992031;28;20098;-77
2022/03/08 13:57:03;;;;;;;1.55;0.90;;;;;;;10.06;37.01;101772.25;5010662;28;20703;-77
2022/03/08 13:59:32;;;;;;;1.52;0.75;;;;;;;10.23;37.05;101767.84;5000352;28;20065;-76
2022/03/08 14:02:03;;;;;;;2.05;0.98;;;;;;;10.39;36.26;101759.03;5000396;28;20564;-78
2022/03/08 14:04:31;;;;;;;1.20;1.00;;;;;;;10.33;36.30;101760.78;4972970;28;20092;-75
2022/03/08 14:07:00;;;;;;;2.55;1.00;;;;;;;10.29;36.62;101766.97;5013400;28;20041;-75
2022/03/08 14:09:27;;;;;;;0.98;0.88;;;;;;;10.22;36.69;101771.38;4994284;28;20045;-78
2022/03/08 14:11:59;;;;;;;1.08;0.73;;;;;;;10.19;37.94;101765.22;5006369;28;20061;-76
2022/03/08 14:14:28;;;;;;;1.10;0.85;;;;;;;10.16;36.58;101768.72;4998695;28;20092;-76
2022/03/08 14:16:55;;;;;;;1.65;0.85;;;;;;;10.21;37.24;101766.94;4981051;28;20042;-77
2022/03/08 14:19:39;;;;;;;3.45;1.40;;;;;;;10.18;36.09;101764.31;4998878;28;20049;-76
2022/03/08 14:22:06;;;;;;;1.75;1.33;;;;;;;9.93;36.24;101765.22;4996578;28;20040;-77
2022/03/08 14:24:33;;;;;;;2.70;1.42;;;;;;;9.74;37.50;101770.47;4999191;28;20076;-76
2022/03/08 14:27:06;;;;;;;2.55;1.30;;;;;;;9.96;36.45;101760.81;4996233;28;20408;-77
2022/03/08 14:29:35;;;;;;;2.15;1.40;;;;;;;9.96;37.01;101766.09;5003186;28;20087;-76
2022/03/08 14:32:05;;;;;;;2.45;1.10;;;;;;;9.98;38.12;101764.31;4996993;28;20038;-77
2022/03/08 14:34:35;;;;;;;4.18;1.20;;;;;;;9.97;37.71;101759.94;4983762;28;20472;-76
2022/03/08 14:37:07;;;;;;;3.03;1.20;;;;;;;10.09;37.76;101756.41;5000638;28;20071;-76
2022/03/08 14:39:39;;;;;;;2.00;1.15;;;;;;;9.96;38.28;101758.16;4989443;28;20140;-77
2022/03/08 14:42:09;;;;;;;1.30;0.90;;;;;;;10.00;37.41;101756.41;5007675;28;20034;-80
2022/03/08 14:44:47;;;;;;;2.17;1.50;;;;;;;9.91;37.03;101757.28;5031815;28;20038;-77
2022/03/08 14:47:22;;;;;;;1.30;1.05;;;;;;;9.84;36.68;101760.81;5007103;28;20049;-79
2022/03/08 14:49:51;;;;;;;3.22;1.15;;;;;;;9.82;38.33;101754.66;4995271;28;20041;-77
2022/03/08 14:52:28;;;;;;;1.95;1.23;;;;;;;9.74;36.01;101752.00;4982862;28;20042;-77
2022/03/08 14:54:57;;;;;;;0.90;0.90;;;;;;;9.67;37.46;101755.53;4994856;28;20038;-77
2022/03/08 14:57:44;;;;;;;1.45;0.90;;;;;;;9.70;38.91;101746.75;4970540;28;20041;-78
2022/03/08 15:00:14;;;;;;;1.35;0.80;;;;;;;9.93;37.90;101752.03;4999147;28;20049;-76
2022/03/08 15:02:43;;;;;;;1.20;0.93;;;;;;;9.79;37.18;101746.75;5011038;28;20400;-78
2022/03/08 15:05:11;;;;;;;1.27;0.80;;;;;;;9.76;40.13;101750.25;4999778;28;20045;-76
2022/03/08 15:07:39;;;;;;;1.10;0.93;;;;;;;9.61;40.39;101752.00;4996388;28;20053;-77
2022/03/08 15:10:06;;;;;;;1.77;0.90;;;;;;;9.57;37.49;101751.09;4996914;28;20072;-77
2022/03/08 15:12:33;;;;;;;0.98;0.88;;;;;;;9.44;38.47;101752.88;4975085;28;20045;-77
2022/03/08 15:15:00;;;;;;;1.70;1.00;;;;;;;9.48;39.18;101745.81;5011119;28;20050;-77
2022/03/08 15:17:27;;;;;;;1.10;0.80;;;;;;;9.60;38.41;101743.22;5008609;28;20073;-78
2022/03/08 15:19:54;;;;;;;0.80;0.80;;;;;;;9.54;38.44;101743.19;4996436;28;20041;-78
2022/03/08 15:22:20;;;;;;;2.17;0.95;;;;;;;9.23;39.81;101743.13;4997799;28;20091;-77
2022/03/08 15:24:47;;;;;;;1.17;0.85;;;;;;;9.40;38.91;101735.25;5000769;28;20041;-77
2022/03/08 15:27:14;;;;;;;0.88;0.80;;;;;;;9.33;40.86;101738.75;5012212;28;20099;-77
2022/03/08 15:29:41;;;;;;;2.80;1.02;;;;;;;9.13;40.22;101745.75;4995091;28;20041;-78
2022/03/08 15:32:08;;;;;;;1.02;0.70;;;;;;;9.03;43.13;101736.94;5001213;28;20120;-78
2022/03/08 15:34:34;;;;;;;0.70;0.70;;;;;;;8.92;42.82;101743.94;5064840;23;20033;-78
2022/03/08 15:37:02;;;;;;;1.17;1.00;;;;;;;9.02;42.18;101735.19;5057329;28;20096;-78
2022/03/08 15:39:29;;;;;;;1.17;0.85;;;;;;;9.08;40.72;101742.22;5040847;28;20098;-78
2022/03/08 15:41:56;;;;;;;1.00;0.85;;;;;;;8.95;40.62;101736.91;5017744;28;20060;-78
2022/03/08 15:44:23;;;;;;;1.33;1.00;;;;;;;8.91;42.45;101735.16;5037900;23;20094;-83
2022/03/08 15:46:50;;;;;;;1.73;0.95;;;;;;;8.80;42.08;101734.22;5012034;28;20137;-85
2022/03/08 15:49:20;;;;;;;1.80;1.00;;;;;;;8.65;42.67;101737.66;5025274;28;20041;-84
2022/03/08 15:51:48;;;;;;;1.67;1.02;;;;;;;8.56;43.09;101734.09;4987764;28;20094;-84
2022/03/08 15:54:14;;;;;;;1.90;1.10;;;;;;;8.35;43.35;101735.78;5019537;28;20486;-85
2022/03/08 15:56:41;;;;;;;2.33;0.90;;;;;;;8.34;44.74;101733.09;5038471;28;20053;-82
2022/03/08 15:59:08;;;;;;;1.17;0.83;;;;;;;8.24;46.84;101747.06;5021848;28;20509;-85
2022/03/08 16:01:38;;;;;;;1.23;0.75;;;;;;;8.09;45.06;101745.22;5043678;28;20454;-84
2022/03/08 16:04:04;;;;;;;1.57;0.80;;;;;;;7.86;45.83;101737.16;5041410;28;20071;-84
2022/03/08 16:06:32;;;;;;;1.50;0.85;;;;;;;7.69;46.90;101733.50;5028331;28;20076;-83
2022/03/08 16:09:00;;;;;;;1.20;0.97;;;;;;;7.66;46.81;101744.00;5022399;28;20084;-87
2022/03/08 16:11:27;;;;;;;1.47;0.80;;;;;;;7.53;46.71;101748.25;5010458;28;20092;-87
2022/03/08 16:13:54;;;;;;;1.17;1.00;;;;;;;7.42;47.12;101740.28;5036430;28;20067;-84
2022/03/08 16:16:21;;;;;;;1.33;0.70;;;;;;;7.33;47.52;101748.94;5002925;28;20060;-84
2022/03/08 16:18:48;;;;;;;1.00;0.80;;;;;;;7.23;47.10;101743.56;5012960;28;20049;-85
2022/03/08 16:21:15;;;;;;;0.93;0.70;;;;;;;7.06;47.62;101732.88;5032035;28;20037;-84
2022/03/08 16:23:42;;;;;;;1.10;0.80;;;;;;;6.98;48.89;101739.81;5035165;28;20052;-86
2022/03/08 16:26:08;;;;;;;0.90;0.80;;;;;;;6.93;49.14;101741.50;5024818;28;20045;-85
2022/03/08 16:28:35;;;;;;;0.90;0.77;;;;;;;6.78;49.12;101752.69;5005763;28;20050;-84
2022/03/08 16:31:02;;;;;;;1.07;0.80;;;;;;;6.65;48.72;101745.53;5007035;28;20041;-83
2022/03/08 16:33:29;;;;;;;1.27;0.80;;;;;;;6.60;47.96;101750.72;5012077;28;20123;-85
2022/03/08 16:35:56;;;;;;;1.63;0.90;;;;;;;6.44;48.36;101756.63;5018029;28;20037;-86
2022/03/08 16:38:25;;;;;;;2.10;1.10;;;;;;;6.29;49.05;101756.38;5015180;28;20096;-86
2022/03/08 16:40:52;;;;;;;1.00;0.80;;;;;;;6.18;49.68;101758.84;5022301;28;20056;-85
2022/03/08 16:43:19;;;;;;;1.40;0.80;;;;;;;6.04;49.79;101766.50;5018658;28;20120;-84
2022/03/08 16:45:45;;;;;;;1.50;1.03;;;;;;;5.92;50.40;101761.97;5019285;28;20372;-87
2022/03/08 16:48:12;;;;;;;1.40;0.80;;;;;;;5.77;51.35;101768.66;5013712;28;20113;-86
2022/03/08 16:50:40;;;;;;;1.57;1.00;;;;;;;5.71;51.89;101773.78;5017693;28;20388;-85
2022/03/08 16:53:07;;;;;;;1.37;0.93;;;;;;;5.55;52.92;101781.41;5036338;28;20041;-83
2022/03/08 16:55:34;;;;;;;1.87;1.10;;;;;;;5.40;53.64;101785.47;5031562;28;20503;-84
2022/03/08 16:58:01;;;;;;;2.70;1.37;;;;;;;5.29;54.08;101780.91;5015711;28;20327;-84
2022/03/08 17:00:27;;;;;;;1.83;1.30;;;;;;;5.16;54.64;101796.38;4999165;28;20092;-84
2022/03/08 17:02:54;;;;;;;2.37;0.93;;;;;;;4.99;55.47;101791.69;5005920;28;20385;-84
2022/03/08 17:05:21;;;;;;;1.00;0.80;;;;;;;4.98;56.64;101783.78;5012351;28;20049;-83
2022/03/08 17:07:48;;;;;;;2.67;1.10;;;;;;;4.91;56.02;101795.00;5009054;28;20057;-84
2022/03/08 17:10:35;;;;;;;1.37;0.90;;;;;;;4.87;55.79;101794.03;5032457;28;20453;-85
2022/03/08 17:13:01;;;;;;;1.37;0.90;;;;;;;4.67;56.58;101797.97;5031214;28;20045;-83
2022/03/08 17:15:28;;;;;;;1.87;1.07;;;;;;;4.51;56.77;101802.84;5017866;28;20040;-84
2022/03/08 17:17:55;;;;;;;2.87;1.40;;;;;;;4.44;56.88;101800.06;5014733;28;20056;-84
2022/03/08 17:20:22;;;;;;;2.27;1.37;;;;;;;4.39;56.81;101804.31;5033483;28;20037;-82
2022/03/08 17:22:49;;;;;;;3.50;1.80;;;;;;;4.31;57.14;101800.66;5018099;28;20045;-84
2022/03/08 17:25:16;;;;;;;2.50;1.63;;;;;;;4.26;57.11;101810.09;5037688;28;20465;-84
2022/03/08 17:27:44;;;;;;;4.67;2.17;;;;;;;4.12;57.29;101800.22;5057054;28;20122;-85
2022/03/08 17:30:11;;;;;;;2.50;1.50;;;;;;;4.08;57.50;101811.44;5056482;28;20071;-82
2022/03/08 17:32:38;;;;;;;1.57;1.30;;;;;;;3.93;58.04;101811.06;5019245;28;20047;-85
2022/03/08 17:35:05;;;;;;;2.53;1.23;;;;;;;3.75;59.87;101814.09;5023127;28;20052;-83
2022/03/08 17:37:31;;;;;;;1.77;1.30;;;;;;;3.61;61.42;101810.22;5036306;28;20102;-85
2022/03/08 17:39:58;;;;;;;1.47;1.10;;;;;;;3.48;62.29;101818.59;5032471;28;20087;-83
2022/03/08 17:42:25;;;;;;;1.70;1.33;;;;;;;3.44;62.43;101814.13;5018300;28;20044;-84
2022/03/08 17:44:52;;;;;;;2.10;1.50;;;;;;;3.41;61.61;101821.88;5018708;28;20080;-86
2022/03/08 17:47:23;;;;;;;2.23;1.90;;;;;;;3.38;61.26;101831.41;5015255;28;20298;-84
2022/03/08 17:49:50;;;;;;;2.23;1.80;;;;;;;3.35;61.32;101831.31;5010790;28;20483;-82
2022/03/08 17:52:18;;;;;;;2.40;1.63;;;;;;;3.30;61.55;101835.53;5013954;28;20041;-85
2022/03/08 17:54:45;;;;;;;2.23;1.60;;;;;;;3.22;61.76;101837.03;5015381;28;20519;-83
2022/03/08 17:57:12;;;;;;;2.20;1.50;;;;;;;3.16;61.71;101841.19;5006630;28;20033;-85
2022/03/08 17:59:38;;;;;;;1.90;1.60;;;;;;;3.00;62.45;101848.59;5035809;28;20053;-82
2022/03/08 18:02:05;;;;;;;3.70;1.97;;;;;;;2.94;62.63;101848.41;5012033;28;20095;-84
2022/03/08 18:04:34;;;;;;;3.73;1.53;;;;;;;2.86;63.31;101844.72;5018440;28;20048;-85
2022/03/08 18:07:01;;;;;;;2.60;1.33;;;;;;;2.80;63.74;101855.84;5014003;28;20072;-83
2022/03/08 18:09:31;;;;;;;1.30;1.20;;;;;;;2.71;64.01;101844.25;5014542;28;20046;-84
2022/03/08 18:11:59;;;;;;;1.17;1.07;;;;;;;2.67;64.12;101845.84;5024457;28;20049;-84
2022/03/08 18:14:29;;;;;;;2.33;1.17;;;;;;;2.59;64.62;101838.63;5015039;28;20037;-84
2022/03/08 18:16:57;;;;;;;2.77;1.10;;;;;;;2.42;65.73;101844.19;4986311;28;20072;-83
2022/03/08 18:19:24;;;;;;;1.30;1.03;;;;;;;2.31;66.52;101848.19;5014532;28;20562;-83
2022/03/08 18:21:51;;;;;;;2.00;1.43;;;;;;;2.12;67.59;101853.66;5013189;28;20416;-83
2022/03/08 18:24:18;;;;;;;1.63;1.10;;;;;;;1.99;68.65;101852.34;4981645;28;20037;-83
2022/03/08 18:26:44;;;;;;;1.27;1.07;;;;;;;1.96;68.96;101852.25;5018865;28;20116;-82
2022/03/08 18:29:11;;;;;;;2.90;1.40;;;;;;;1.85;70.20;101851.91;4996893;28;20056;-83
2022/03/08 18:31:38;;;;;;;2.50;1.30;;;;;;;1.87;70.35;101852.84;5003728;28;20099;-83
2022/03/08 18:34:04;;;;;;;1.50;1.10;;;;;;;1.84;70.07;101850.13;5015057;28;20042;-84
2022/03/08 18:36:31;;;;;;;1.70;1.50;;;;;;;1.75;70.07;101852.41;5010570;28;20052;-82
2022/03/08 18:38:59;;;;;;;1.17;1.00;;;;;;;1.74;69.82;101850.63;5032102;28;20442;-84
2022/03/08 18:41:25;;;;;;;2.40;1.20;;;;;;;1.60;70.05;101854.50;5036130;28;20045;-84
2022/03/08 18:43:52;;;;;;;1.80;1.00;;;;;;;1.50;70.81;101852.38;5019929;28;20500;-83
2022/03/08 18:46:20;;;;;;;2.27;1.47;;;;;;;1.46;70.92;101846.19;5046776;28;20076;-83
2022/03/08 18:48:51;;;;;;;1.37;1.27;;;;;;;1.47;70.35;101847.97;5041430;28;20071;-84